createdAt,value
2018-07-19T00:01:00.393Z,0
2018-07-19T00:02:16.284Z,0
2018-07-19T00:03:32.229Z,0
2018-07-19T00:04:48.114Z,0
2018-07-19T00:06:04.008Z,0
2018-07-19T00:07:19.969Z,0
2018-07-19T00:08:35.879Z,0
2018-07-19T00:09:51.753Z,0
2018-07-19T00:11:07.683Z,0
2018-07-19T00:12:23.576Z,0
2018-07-19T00:13:39.458Z,0
2018-07-19T00:14:55.365Z,0
2018-07-19T00:16:11.264Z,0
2018-07-19T00:17:27.211Z,0
2018-07-19T00:18:43.117Z,0
2018-07-19T00:19:59.005Z,0
2018-07-19T00:21:14.875Z,0
2018-07-19T00:22:30.833Z,0
2018-07-19T00:23:46.814Z,0
2018-07-19T00:25:02.737Z,0
2018-07-19T00:26:18.675Z,0
2018-07-19T00:27:35.575Z,0
2018-07-19T00:28:51.461Z,0
2018-07-19T00:30:07.346Z,0
2018-07-19T00:31:23.319Z,0
2018-07-19T00:32:39.202Z,0
2018-07-19T00:33:55.090Z,0
2018-07-19T00:35:10.947Z,0
2018-07-19T00:36:26.811Z,0
2018-07-19T00:37:42.734Z,0
2018-07-19T00:38:58.650Z,0
2018-07-19T00:40:14.527Z,0
2018-07-19T00:41:30.486Z,0
2018-07-19T00:42:46.477Z,0
2018-07-19T00:44:02.434Z,0
2018-07-19T00:45:18.344Z,0
2018-07-19T00:46:34.245Z,0
2018-07-19T00:47:50.160Z,0
2018-07-19T00:49:06.047Z,0
2018-07-19T00:50:21.937Z,0
2018-07-19T00:51:37.830Z,0
2018-07-19T00:52:53.754Z,0
2018-07-19T00:54:09.727Z,0
2018-07-19T00:55:25.640Z,0
2018-07-19T00:56:41.566Z,0
2018-07-19T00:57:57.455Z,0
2018-07-19T00:59:13.387Z,0
2018-07-19T01:00:29.277Z,0
2018-07-19T01:01:45.132Z,0
2018-07-19T01:03:01.063Z,0
2018-07-19T01:04:16.949Z,0
2018-07-19T01:05:32.849Z,0
2018-07-19T01:06:48.735Z,0
2018-07-19T01:08:04.643Z,0
2018-07-19T01:09:20.622Z,0
2018-07-19T01:10:36.685Z,0
2018-07-19T01:11:52.551Z,0
2018-07-19T01:13:08.436Z,0
2018-07-19T01:14:24.317Z,0
2018-07-19T01:15:40.228Z,0
2018-07-19T01:16:57.152Z,0
2018-07-19T01:18:13.104Z,0
2018-07-19T01:19:28.993Z,0
2018-07-19T01:20:44.962Z,0
2018-07-19T01:22:00.840Z,0
2018-07-19T01:23:16.778Z,0
2018-07-19T01:24:32.682Z,0
2018-07-19T01:25:48.551Z,0
2018-07-19T01:27:04.506Z,0
2018-07-19T01:28:20.411Z,0
2018-07-19T01:29:36.332Z,0
2018-07-19T01:30:52.200Z,0
2018-07-19T01:32:08.200Z,0
2018-07-19T01:33:24.113Z,0
2018-07-19T01:34:40.016Z,0
2018-07-19T01:35:55.988Z,0
2018-07-19T01:37:11.880Z,0
2018-07-19T01:38:27.786Z,0
2018-07-19T01:39:43.689Z,0
2018-07-19T01:40:59.566Z,0
2018-07-19T01:42:15.457Z,0
2018-07-19T01:43:31.377Z,0
2018-07-19T01:44:47.446Z,0
2018-07-19T01:46:03.396Z,0
2018-07-19T01:47:19.378Z,0
2018-07-19T01:48:35.299Z,0
2018-07-19T01:49:51.270Z,0
2018-07-19T01:51:07.178Z,0
2018-07-19T01:52:23.060Z,0
2018-07-19T01:53:39.002Z,0
2018-07-19T01:54:54.888Z,0
2018-07-19T01:56:10.815Z,0
2018-07-19T01:57:26.737Z,0
2018-07-19T01:58:42.660Z,0
2018-07-19T01:59:58.572Z,0
2018-07-19T02:01:14.471Z,0
2018-07-19T02:02:30.442Z,0
2018-07-19T02:03:46.460Z,0
2018-07-19T02:05:02.376Z,0
2018-07-19T02:06:18.293Z,0
2018-07-19T02:07:34.204Z,0
2018-07-19T02:08:50.111Z,0
2018-07-19T02:10:05.992Z,0
2018-07-19T02:11:21.856Z,0
2018-07-19T02:12:37.728Z,0
2018-07-19T02:13:53.604Z,0
2018-07-19T02:15:09.457Z,0
2018-07-19T02:16:25.367Z,0
2018-07-19T02:17:41.293Z,0
2018-07-19T02:18:57.202Z,0
2018-07-19T02:20:13.117Z,0
2018-07-19T02:21:29.003Z,0
2018-07-19T02:22:44.922Z,0
2018-07-19T02:24:00.831Z,0
2018-07-19T02:25:16.684Z,0
2018-07-19T02:26:32.586Z,0
2018-07-19T02:27:48.476Z,0
2018-07-19T02:29:04.363Z,0
2018-07-19T02:30:20.394Z,0
2018-07-19T02:31:36.281Z,0
2018-07-19T02:32:52.206Z,0
2018-07-19T02:34:08.103Z,0
2018-07-19T02:35:24.027Z,0
2018-07-19T02:36:39.923Z,0
2018-07-19T02:37:55.821Z,0
2018-07-19T02:39:11.725Z,0
2018-07-19T02:40:27.617Z,0
2018-07-19T02:41:43.527Z,0
2018-07-19T02:42:59.610Z,0
2018-07-19T02:45:57.339Z,0
2018-07-19T02:47:13.234Z,0
2018-07-19T02:48:29.252Z,0
2018-07-19T02:49:45.215Z,0
2018-07-19T02:51:01.083Z,0
2018-07-19T02:52:16.974Z,0
2018-07-19T02:53:32.881Z,0
2018-07-19T02:54:48.800Z,0
2018-07-19T02:56:04.675Z,0
2018-07-19T02:57:20.549Z,0
2018-07-19T02:58:36.514Z,0
2018-07-19T02:59:52.431Z,0
2018-07-19T03:01:08.347Z,0
2018-07-19T03:02:24.243Z,0
2018-07-19T03:03:40.164Z,0
2018-07-19T03:04:56.147Z,0
2018-07-19T03:06:12.061Z,0
2018-07-19T03:07:27.917Z,0
2018-07-19T03:08:43.884Z,0
2018-07-19T03:09:59.777Z,0
2018-07-19T03:11:15.680Z,0
2018-07-19T03:12:31.685Z,0
2018-07-19T03:13:47.622Z,0
2018-07-19T03:15:03.524Z,0
2018-07-19T03:16:19.494Z,0
2018-07-19T03:17:35.500Z,0
2018-07-19T03:18:51.389Z,0
2018-07-19T03:20:07.344Z,0
2018-07-19T03:21:23.249Z,0
2018-07-19T03:22:39.164Z,0
2018-07-19T03:23:55.080Z,0
2018-07-19T03:25:11.047Z,0
2018-07-19T03:26:26.930Z,0
2018-07-19T03:27:42.817Z,0
2018-07-19T03:28:58.694Z,0
2018-07-19T03:30:14.588Z,0
2018-07-19T03:31:30.526Z,0
2018-07-19T03:32:46.496Z,0
2018-07-19T03:34:02.432Z,0
2018-07-19T03:35:18.307Z,0
2018-07-19T03:36:34.191Z,0
2018-07-19T03:37:50.092Z,0
2018-07-19T03:39:06.033Z,0
2018-07-19T03:40:22.016Z,0
2018-07-19T03:41:37.962Z,5.625
2018-07-19T03:42:53.859Z,5.625
2018-07-19T03:44:09.762Z,5.625
2018-07-19T03:45:25.688Z,5.625
2018-07-19T03:46:41.602Z,5.625
2018-07-19T03:47:57.566Z,5.625
2018-07-19T03:49:13.496Z,5.625
2018-07-19T03:50:29.466Z,11.25
2018-07-19T03:56:29.929Z,11.25
2018-07-19T03:57:45.938Z,16.875
2018-07-19T03:59:01.852Z,16.875
2018-07-19T04:00:17.776Z,16.875
2018-07-19T04:01:33.679Z,16.875
2018-07-19T04:02:49.658Z,22.5
2018-07-19T04:04:05.551Z,22.5
2018-07-19T04:05:21.468Z,22.5
2018-07-19T04:06:37.457Z,22.5
2018-07-19T04:07:53.376Z,28.125
2018-07-19T04:09:09.270Z,28.125
2018-07-19T04:10:25.196Z,28.125
2018-07-19T04:11:41.070Z,28.125
2018-07-19T04:12:57.041Z,33.75
2018-07-19T04:14:12.943Z,33.75
2018-07-19T04:15:28.819Z,33.75
2018-07-19T04:16:44.743Z,39.375
2018-07-19T04:18:00.731Z,39.375
2018-07-19T04:19:16.618Z,39.375
2018-07-19T04:20:32.628Z,39.375
2018-07-19T04:21:48.489Z,45
2018-07-19T04:23:04.455Z,45
2018-07-19T04:24:20.389Z,45
2018-07-19T04:25:36.312Z,50.625
2018-07-19T04:26:52.177Z,50.625
2018-07-19T04:28:08.087Z,50.625
2018-07-19T04:29:23.959Z,50.625
2018-07-19T04:30:39.961Z,56.25
2018-07-19T04:31:55.835Z,56.25
2018-07-19T04:33:11.746Z,56.25
2018-07-19T04:34:27.632Z,61.875
2018-07-19T04:35:43.567Z,61.875
2018-07-19T04:39:56.249Z,67.5
2018-07-19T04:41:12.203Z,67.5
2018-07-19T04:42:28.097Z,67.5
2018-07-19T04:43:44.063Z,73.125
2018-07-19T04:45:00.038Z,73.125
2018-07-19T04:46:15.986Z,73.125
2018-07-19T04:47:31.974Z,73.125
2018-07-19T04:48:47.953Z,78.75
2018-07-19T04:50:03.835Z,78.75
2018-07-19T04:51:19.781Z,78.75
2018-07-19T04:52:35.733Z,84.375
2018-07-19T04:53:51.692Z,84.375
2018-07-19T04:55:07.644Z,84.375
2018-07-19T04:56:23.638Z,84.375
2018-07-19T04:57:39.550Z,90
2018-07-19T04:58:55.537Z,90
2018-07-19T05:00:11.454Z,90
2018-07-19T05:01:27.537Z,90
2018-07-19T05:02:43.444Z,95.625
2018-07-19T05:03:59.384Z,95.625
2018-07-19T05:05:15.268Z,11.25
2018-07-19T05:06:31.217Z,95.625
2018-07-19T05:07:47.165Z,101.25
2018-07-19T05:09:03.128Z,101.25
2018-07-19T05:10:19.191Z,101.25
2018-07-19T05:11:35.192Z,101.25
2018-07-19T05:12:51.128Z,106.875
2018-07-19T05:14:07.006Z,106.875
2018-07-19T05:15:22.974Z,106.875
2018-07-19T05:16:38.940Z,106.875
2018-07-19T05:17:54.886Z,112.5
2018-07-19T05:19:10.797Z,112.5
2018-07-19T05:20:26.699Z,112.5
2018-07-19T05:21:43.582Z,112.5
2018-07-19T05:22:59.504Z,112.5
2018-07-19T05:24:15.465Z,118.125
2018-07-19T05:25:31.380Z,118.125
2018-07-19T05:26:47.363Z,118.125
2018-07-19T05:28:03.297Z,118.125
2018-07-19T05:29:19.203Z,123.75
2018-07-19T05:30:35.060Z,123.75
2018-07-19T05:31:50.993Z,123.75
2018-07-19T05:33:06.903Z,123.75
2018-07-19T05:34:22.913Z,123.75
2018-07-19T05:35:38.843Z,123.75
2018-07-19T05:36:54.875Z,129.375
2018-07-19T05:38:10.802Z,129.375
2018-07-19T05:39:26.734Z,129.375
2018-07-19T05:40:42.668Z,129.375
2018-07-19T05:41:58.624Z,129.375
2018-07-19T05:43:14.565Z,135
2018-07-19T05:46:12.452Z,135
2018-07-19T05:47:28.352Z,135
2018-07-19T05:48:44.296Z,135
2018-07-19T05:50:00.186Z,140.625
2018-07-19T05:51:16.164Z,140.625
2018-07-19T05:52:32.106Z,140.625
2018-07-19T05:53:48.003Z,140.625
2018-07-19T05:55:04.006Z,140.625
2018-07-19T05:56:19.985Z,146.25
2018-07-19T05:57:35.918Z,146.25
2018-07-19T05:58:51.984Z,146.25
2018-07-19T06:00:07.939Z,146.25
2018-07-19T06:01:23.898Z,146.25
2018-07-19T06:02:39.818Z,146.25
2018-07-19T06:03:55.718Z,146.25
2018-07-19T06:05:11.657Z,151.875
2018-07-19T06:06:27.572Z,151.875
2018-07-19T06:07:43.569Z,151.875
2018-07-19T06:08:59.525Z,151.875
2018-07-19T06:10:15.429Z,151.875
2018-07-19T06:11:31.330Z,157.5
2018-07-19T06:12:47.258Z,157.5
2018-07-19T06:14:03.193Z,157.5
2018-07-19T06:15:19.087Z,157.5
2018-07-19T06:16:34.970Z,157.5
2018-07-19T06:17:50.874Z,157.5
2018-07-19T06:19:06.763Z,157.5
2018-07-19T06:20:22.701Z,163.125
2018-07-19T06:21:38.668Z,163.125
2018-07-19T06:22:54.695Z,163.125
2018-07-19T06:24:10.573Z,163.125
2018-07-19T06:25:26.497Z,163.125
2018-07-19T06:26:42.409Z,163.125
2018-07-19T06:27:58.353Z,168.75
2018-07-19T06:29:14.268Z,168.75
2018-07-19T06:30:30.183Z,168.75
2018-07-19T06:31:46.126Z,168.75
2018-07-19T06:33:02.129Z,168.75
2018-07-19T06:34:18.080Z,168.75
2018-07-19T06:35:34.016Z,168.75
2018-07-19T06:36:51.018Z,168.75
2018-07-19T06:38:06.925Z,174.375
2018-07-19T06:39:22.807Z,174.375
2018-07-19T06:40:38.741Z,174.375
2018-07-19T06:41:54.696Z,174.375
2018-07-19T06:43:10.575Z,174.375
2018-07-19T06:44:26.501Z,174.375
2018-07-19T06:45:42.472Z,180
2018-07-19T06:46:58.411Z,174.375
2018-07-19T06:48:14.359Z,174.375
2018-07-19T06:49:30.291Z,174.375
2018-07-19T06:50:46.248Z,174.375
2018-07-19T06:52:02.245Z,174.375
2018-07-19T06:53:18.191Z,180
2018-07-19T06:54:34.135Z,180
2018-07-19T06:55:50.067Z,180
2018-07-19T06:57:06.078Z,180
2018-07-19T06:58:21.999Z,180
2018-07-19T06:59:37.924Z,180
2018-07-19T07:00:53.886Z,180
2018-07-19T07:02:10.016Z,185.625
2018-07-19T07:03:25.957Z,185.625
2018-07-19T07:04:41.888Z,185.625
2018-07-19T07:05:57.749Z,185.625
2018-07-19T07:07:13.649Z,185.625
2018-07-19T07:08:29.573Z,191.25
2018-07-19T07:09:45.502Z,191.25
2018-07-19T07:11:01.545Z,191.25
2018-07-19T07:12:17.459Z,196.875
2018-07-19T07:13:33.475Z,196.875
2018-07-19T07:14:49.443Z,196.875
2018-07-19T07:16:05.324Z,196.875
2018-07-19T07:17:21.301Z,202.5
2018-07-19T07:18:37.271Z,202.5
2018-07-19T07:21:34.430Z,208.125
2018-07-19T07:22:50.372Z,208.125
2018-07-19T07:24:06.538Z,208.125
2018-07-19T07:25:22.499Z,208.125
2018-07-19T07:26:38.488Z,208.125
2018-07-19T07:27:54.476Z,213.75
2018-07-19T07:29:10.591Z,213.75
2018-07-19T07:30:26.627Z,213.75
2018-07-19T07:31:42.590Z,213.75
2018-07-19T07:32:58.501Z,219.375
2018-07-19T07:34:15.500Z,219.375
2018-07-19T07:35:31.412Z,219.375
2018-07-19T07:36:47.377Z,219.375
2018-07-19T07:38:03.390Z,219.375
2018-07-19T07:39:19.387Z,225
2018-07-19T07:40:35.340Z,225
2018-07-19T07:41:51.312Z,225
2018-07-19T07:43:07.249Z,225
2018-07-19T07:44:23.320Z,225
2018-07-19T07:45:39.356Z,225
2018-07-19T07:46:55.371Z,230.625
2018-07-19T07:48:11.312Z,230.625
2018-07-19T07:49:26.508Z,230.625
2018-07-19T07:50:42.819Z,230.625
2018-07-19T07:53:39.684Z,230.625
2018-07-19T07:54:56.038Z,236.25
2018-07-19T07:57:52.717Z,236.25
2018-07-19T08:00:50.908Z,236.25
2018-07-19T08:06:44.423Z,241.875
2018-07-19T08:09:41.021Z,247.5
2018-07-19T08:10:57.002Z,247.5
2018-07-19T08:12:12.975Z,247.5
2018-07-19T08:13:28.908Z,247.5
2018-07-19T08:14:44.801Z,247.5
2018-07-19T08:16:00.908Z,247.5
2018-07-19T08:17:17.014Z,253.125
2018-07-19T08:18:33.028Z,253.125
2018-07-19T08:19:48.974Z,258.75
2018-07-19T08:21:04.955Z,258.75
2018-07-19T08:22:20.954Z,253.125
2018-07-19T08:23:37.273Z,253.125
2018-07-19T08:24:53.721Z,253.125
2018-07-19T08:27:52.575Z,258.75
2018-07-19T08:32:34.897Z,264.375
2018-07-19T08:33:51.164Z,264.375
2018-07-19T08:35:07.140Z,264.375
2018-07-19T08:36:23.179Z,264.375
2018-07-19T08:37:39.171Z,264.375
2018-07-19T08:38:55.253Z,264.375
2018-07-19T08:40:11.189Z,264.375
2018-07-19T08:41:27.313Z,270
2018-07-19T08:42:43.278Z,270
2018-07-19T08:43:59.365Z,270
2018-07-19T08:45:15.356Z,270
2018-07-19T08:46:31.298Z,270
2018-07-19T08:47:47.827Z,270
2018-07-19T08:53:42.333Z,275.625
2018-07-19T08:54:58.445Z,275.625
2018-07-19T08:57:55.426Z,275.625
2018-07-19T08:59:11.993Z,281.25
2018-07-19T09:00:28.230Z,281.25
2018-07-19T09:01:44.172Z,286.875
2018-07-19T09:03:00.128Z,286.875
2018-07-19T09:04:16.139Z,286.875
2018-07-19T09:05:32.085Z,286.875
2018-07-19T09:06:48.113Z,286.875
2018-07-19T09:08:04.112Z,292.5
2018-07-19T09:09:20.070Z,286.875
2018-07-19T09:10:36.071Z,286.875
2018-07-19T09:11:52.001Z,292.5
2018-07-19T09:13:07.925Z,292.5
2018-07-19T09:14:23.854Z,292.5
2018-07-19T09:15:39.979Z,292.5
2018-07-19T09:16:55.904Z,298.125
2018-07-19T09:18:11.813Z,298.125
2018-07-19T09:19:27.780Z,298.125
2018-07-19T09:20:43.622Z,298.125
2018-07-19T09:21:59.538Z,303.75
2018-07-19T09:23:15.692Z,298.125
2018-07-19T09:24:32.621Z,303.75
2018-07-19T09:25:48.547Z,303.75
2018-07-19T09:27:04.494Z,303.75
2018-07-19T09:28:20.500Z,303.75
2018-07-19T09:29:36.422Z,309.375
2018-07-19T09:30:52.336Z,309.375
2018-07-19T09:32:08.293Z,309.375
2018-07-19T09:33:24.311Z,309.375
2018-07-19T09:34:40.317Z,309.375
2018-07-19T09:35:56.236Z,315
2018-07-19T09:37:12.200Z,315
2018-07-19T09:38:28.263Z,315
2018-07-19T09:39:44.081Z,315
2018-07-19T09:41:00.075Z,320.625
2018-07-19T09:42:16.153Z,320.625
2018-07-19T09:43:32.183Z,320.625
2018-07-19T09:44:48.121Z,320.625
2018-07-19T09:46:04.188Z,320.625
2018-07-19T09:47:20.236Z,320.625
2018-07-19T09:48:36.218Z,326.25
2018-07-19T09:49:52.134Z,326.25
2018-07-19T09:51:08.071Z,326.25
2018-07-19T09:52:24.054Z,326.25
2018-07-19T09:53:39.941Z,326.25
2018-07-19T09:54:55.892Z,326.25
2018-07-19T09:56:11.858Z,331.875
2018-07-19T09:57:27.874Z,331.875
2018-07-19T09:58:43.877Z,337.5
2018-07-19T09:59:59.809Z,331.875
2018-07-19T10:01:15.816Z,331.875
2018-07-19T10:02:31.836Z,337.5
2018-07-19T10:03:47.731Z,337.5
2018-07-19T10:05:03.673Z,337.5
2018-07-19T10:06:19.571Z,337.5
2018-07-19T10:07:35.541Z,337.5
2018-07-19T10:08:51.487Z,337.5
2018-07-19T10:10:07.390Z,337.5
2018-07-19T10:11:23.273Z,343.125
2018-07-19T10:12:39.169Z,343.125
2018-07-19T10:13:55.073Z,343.125
2018-07-19T10:15:10.970Z,343.125
2018-07-19T10:16:26.879Z,343.125
2018-07-19T10:17:42.837Z,343.125
2018-07-19T10:18:58.700Z,343.125
2018-07-19T10:20:14.606Z,343.125
2018-07-19T10:21:30.548Z,343.125
2018-07-19T10:22:46.473Z,343.125
2018-07-19T10:24:02.416Z,343.125
2018-07-19T10:25:18.383Z,348.75
2018-07-19T10:26:34.342Z,348.75
2018-07-19T10:27:50.324Z,348.75
2018-07-19T10:29:06.242Z,354.375
2018-07-19T10:30:22.201Z,354.375
2018-07-19T10:31:38.162Z,348.75
2018-07-19T10:32:54.095Z,354.375
2018-07-19T10:34:10.075Z,354.375
2018-07-19T10:35:25.940Z,354.375
2018-07-19T10:36:41.827Z,360
2018-07-19T10:37:57.720Z,360
2018-07-19T10:39:14.590Z,360
2018-07-19T10:40:30.495Z,360
2018-07-19T10:41:46.391Z,360
2018-07-19T10:43:02.386Z,360
2018-07-19T10:44:18.281Z,360
2018-07-19T10:45:34.236Z,360
2018-07-19T10:46:50.110Z,360
2018-07-19T10:48:06.036Z,360
2018-07-19T10:49:21.920Z,365.625
2018-07-19T10:50:37.814Z,365.625
2018-07-19T10:51:53.762Z,365.625
2018-07-19T10:53:09.724Z,365.625
2018-07-19T10:54:25.605Z,365.625
2018-07-19T10:55:41.663Z,371.25
2018-07-19T10:56:57.596Z,365.625
2018-07-19T10:58:13.554Z,371.25
2018-07-19T10:59:29.578Z,371.25
2018-07-19T11:00:45.775Z,371.25
2018-07-19T11:02:01.710Z,371.25
2018-07-19T11:03:17.600Z,371.25
2018-07-19T11:04:33.533Z,371.25
2018-07-19T11:05:49.465Z,371.25
2018-07-19T11:07:05.422Z,371.25
2018-07-19T11:08:21.322Z,371.25
2018-07-19T11:09:37.316Z,371.25
2018-07-19T11:10:53.155Z,376.875
2018-07-19T11:12:09.158Z,371.25
2018-07-19T11:13:25.169Z,376.875
2018-07-19T11:14:41.094Z,376.875
2018-07-19T11:15:57.028Z,376.875
2018-07-19T11:17:12.934Z,376.875
2018-07-19T11:18:28.842Z,376.875
2018-07-19T11:19:44.756Z,376.875
2018-07-19T11:21:00.649Z,382.5
2018-07-19T11:22:16.631Z,382.5
2018-07-19T11:23:32.570Z,382.5
2018-07-19T11:24:48.501Z,382.5
2018-07-19T11:27:45.055Z,382.5
2018-07-19T11:29:01.021Z,382.5
2018-07-19T11:30:17.014Z,388.125
2018-07-19T11:31:32.910Z,388.125
2018-07-19T11:32:48.817Z,388.125
2018-07-19T11:34:04.752Z,388.125
2018-07-19T11:35:20.708Z,388.125
2018-07-19T11:36:36.611Z,388.125
2018-07-19T11:37:52.568Z,393.75
2018-07-19T11:39:08.480Z,393.75
2018-07-19T11:40:24.382Z,393.75
2018-07-19T11:41:40.417Z,393.75
2018-07-19T11:42:56.330Z,393.75
2018-07-19T11:44:12.261Z,399.375
2018-07-19T11:45:28.180Z,410.625
2018-07-19T11:46:44.083Z,410.625
2018-07-19T11:48:00.032Z,405
2018-07-19T11:49:15.933Z,410.625
2018-07-19T11:50:31.807Z,416.25
2018-07-19T11:51:47.729Z,410.625
2018-07-19T11:53:03.658Z,410.625
2018-07-19T11:54:19.601Z,410.625
2018-07-19T11:55:35.568Z,410.625
2018-07-19T11:56:51.420Z,410.625
2018-07-19T11:58:07.387Z,410.625
2018-07-19T11:59:23.299Z,410.625
2018-07-19T12:00:39.192Z,410.625
2018-07-19T12:01:55.162Z,410.625
2018-07-19T12:03:11.069Z,416.25
2018-07-19T12:04:26.986Z,410.625
2018-07-19T12:05:42.983Z,410.625
2018-07-19T12:06:58.889Z,410.625
2018-07-19T12:08:14.808Z,410.625
2018-07-19T12:09:30.709Z,410.625
2018-07-19T12:10:46.586Z,410.625
2018-07-19T12:12:02.501Z,410.625
2018-07-19T12:13:18.423Z,410.625
2018-07-19T12:14:34.332Z,416.25
2018-07-19T12:15:50.276Z,416.25
2018-07-19T12:17:06.265Z,416.25
2018-07-19T12:18:22.227Z,410.625
2018-07-19T12:19:38.122Z,410.625
2018-07-19T12:20:54.184Z,410.625
2018-07-19T12:22:10.190Z,410.625
2018-07-19T12:23:26.183Z,410.625
2018-07-19T12:24:42.093Z,410.625
2018-07-19T12:25:58.065Z,416.25
2018-07-19T12:27:14.055Z,416.25
2018-07-19T12:28:29.960Z,416.25
2018-07-19T12:29:45.881Z,416.25
2018-07-19T12:31:01.818Z,416.25
2018-07-19T12:32:17.766Z,416.25
2018-07-19T12:33:33.665Z,416.25
2018-07-19T12:34:49.656Z,416.25
2018-07-19T12:36:05.625Z,416.25
2018-07-19T12:37:21.525Z,410.625
2018-07-19T12:38:37.470Z,416.25
2018-07-19T12:39:53.399Z,410.625
2018-07-19T12:41:09.432Z,410.625
2018-07-19T12:42:25.327Z,410.625
2018-07-19T12:43:41.251Z,410.625
2018-07-19T12:44:57.197Z,410.625
2018-07-19T12:46:13.089Z,410.625
2018-07-19T12:47:29.044Z,410.625
2018-07-19T12:48:44.971Z,410.625
2018-07-19T12:50:00.856Z,410.625
2018-07-19T12:51:16.841Z,410.625
2018-07-19T12:52:32.746Z,405
2018-07-19T12:53:48.713Z,405
2018-07-19T12:55:04.641Z,405
2018-07-19T12:56:20.546Z,405
2018-07-19T12:57:36.466Z,405
2018-07-19T12:58:52.409Z,405
2018-07-19T13:00:08.386Z,405
2018-07-19T13:01:24.278Z,405
2018-07-19T13:02:40.232Z,405
2018-07-19T13:03:56.171Z,405
2018-07-19T13:05:12.081Z,405
2018-07-19T13:06:27.995Z,405
2018-07-19T13:07:43.913Z,405
2018-07-19T13:08:59.795Z,405
2018-07-19T13:10:15.683Z,410.625
2018-07-19T13:11:31.612Z,410.625
2018-07-19T13:12:47.502Z,410.625
2018-07-19T13:14:03.413Z,410.625
2018-07-19T13:15:19.447Z,405
2018-07-19T13:16:35.480Z,410.625
2018-07-19T13:17:51.379Z,410.625
2018-07-19T13:19:07.301Z,410.625
2018-07-19T13:20:23.252Z,416.25
2018-07-19T13:21:39.279Z,410.625
2018-07-19T13:22:55.163Z,410.625
2018-07-19T13:24:11.104Z,410.625
2018-07-19T13:25:26.999Z,405
2018-07-19T13:26:42.956Z,410.625
2018-07-19T13:27:58.862Z,410.625
2018-07-19T13:29:14.899Z,410.625
2018-07-19T13:30:30.784Z,410.625
2018-07-19T13:31:46.709Z,410.625
2018-07-19T13:33:02.621Z,410.625
2018-07-19T13:34:18.585Z,410.625
2018-07-19T13:35:34.540Z,376.875
2018-07-19T13:36:50.543Z,410.625
2018-07-19T13:38:06.429Z,405
2018-07-19T13:39:22.340Z,410.625
2018-07-19T13:40:38.274Z,405
2018-07-19T13:41:54.183Z,410.625
2018-07-19T13:43:10.132Z,416.25
2018-07-19T13:44:26.121Z,410.625
2018-07-19T13:45:42.034Z,405
2018-07-19T13:46:57.946Z,410.625
2018-07-19T13:48:13.893Z,405
2018-07-19T13:49:29.809Z,405
2018-07-19T13:50:45.739Z,405
2018-07-19T13:52:01.716Z,405
2018-07-19T13:53:17.653Z,405
2018-07-19T13:54:33.538Z,405
2018-07-19T13:55:49.442Z,405
2018-07-19T13:57:05.355Z,405
2018-07-19T13:58:21.317Z,399.375
2018-07-19T13:59:37.198Z,399.375
2018-07-19T14:00:53.113Z,399.375
2018-07-19T14:02:09.040Z,399.375
2018-07-19T14:03:24.958Z,399.375
2018-07-19T14:04:40.880Z,399.375
2018-07-19T14:05:56.870Z,399.375
2018-07-19T14:07:12.807Z,399.375
2018-07-19T14:08:28.859Z,393.75
2018-07-19T14:09:45.031Z,393.75
2018-07-19T14:11:01.029Z,393.75
2018-07-19T14:12:16.950Z,393.75
2018-07-19T14:13:32.922Z,393.75
2018-07-19T14:14:48.893Z,393.75
2018-07-19T14:16:04.864Z,393.75
2018-07-19T14:17:20.734Z,393.75
2018-07-19T14:18:36.652Z,393.75
2018-07-19T14:19:52.625Z,393.75
2018-07-19T14:21:08.546Z,393.75
2018-07-19T14:22:24.460Z,393.75
2018-07-19T14:23:40.493Z,393.75
2018-07-19T14:24:56.414Z,393.75
2018-07-19T14:26:12.342Z,393.75
2018-07-19T14:27:28.255Z,393.75
2018-07-19T14:28:44.345Z,393.75
2018-07-19T14:30:00.298Z,393.75
2018-07-19T14:31:16.240Z,393.75
2018-07-19T14:32:32.170Z,393.75
2018-07-19T14:33:48.150Z,393.75
2018-07-19T14:35:04.089Z,388.125
2018-07-19T14:36:20.132Z,388.125
2018-07-19T14:37:36.039Z,388.125
2018-07-19T14:38:51.980Z,388.125
2018-07-19T14:40:07.907Z,388.125
2018-07-19T14:41:23.856Z,388.125
2018-07-19T14:42:39.751Z,388.125
2018-07-19T14:43:55.663Z,382.5
2018-07-19T14:45:11.656Z,382.5
2018-07-19T14:46:28.170Z,388.125
2018-07-19T14:47:44.482Z,382.5
2018-07-19T14:49:00.625Z,382.5
2018-07-19T14:50:16.860Z,382.5
2018-07-19T14:51:33.151Z,382.5
2018-07-19T14:52:49.053Z,382.5
2018-07-19T14:54:04.953Z,382.5
2018-07-19T14:55:20.860Z,382.5
2018-07-19T14:56:36.811Z,382.5
2018-07-19T14:57:52.830Z,376.875
2018-07-19T14:59:08.753Z,376.875
2018-07-19T15:00:24.661Z,376.875
2018-07-19T15:01:40.608Z,371.25
2018-07-19T15:02:56.585Z,371.25
2018-07-19T15:04:12.502Z,371.25
2018-07-19T15:05:28.392Z,371.25
2018-07-19T15:06:44.312Z,365.625
2018-07-19T15:08:00.203Z,365.625
2018-07-19T15:09:16.122Z,365.625
2018-07-19T15:10:32.028Z,365.625
2018-07-19T15:11:47.965Z,360
2018-07-19T15:13:03.847Z,360
2018-07-19T15:14:19.780Z,360
2018-07-19T15:15:35.669Z,360
2018-07-19T15:16:51.638Z,354.375
2018-07-19T15:18:07.607Z,354.375
2018-07-19T15:19:23.490Z,354.375
2018-07-19T15:20:39.415Z,354.375
2018-07-19T15:21:55.401Z,348.75
2018-07-19T15:23:11.364Z,348.75
2018-07-19T15:24:27.551Z,348.75
2018-07-19T15:25:43.698Z,348.75
2018-07-19T15:26:59.681Z,343.125
2018-07-19T15:28:15.715Z,343.125
2018-07-19T15:29:31.695Z,343.125
2018-07-19T15:30:47.721Z,337.5
2018-07-19T15:32:03.713Z,337.5
2018-07-19T15:33:19.654Z,343.125
2018-07-19T15:34:35.714Z,337.5
2018-07-19T15:35:51.664Z,337.5
2018-07-19T15:37:07.638Z,337.5
2018-07-19T15:38:23.672Z,337.5
2018-07-19T15:39:39.666Z,331.875
2018-07-19T15:40:55.534Z,331.875
2018-07-19T15:42:11.535Z,331.875
2018-07-19T15:43:27.601Z,326.25
2018-07-19T15:44:43.662Z,326.25
2018-07-19T15:45:59.686Z,326.25
2018-07-19T15:47:15.828Z,326.25
2018-07-19T15:48:31.974Z,320.625
2018-07-19T15:51:28.550Z,320.625
2018-07-19T15:52:44.523Z,320.625
2018-07-19T15:54:00.484Z,320.625
2018-07-19T15:55:16.522Z,315
2018-07-19T15:56:32.679Z,315
2018-07-19T15:57:48.615Z,309.375
2018-07-19T15:59:04.600Z,309.375
2018-07-19T16:00:20.779Z,309.375
2018-07-19T16:01:36.821Z,303.75
2018-07-19T16:04:33.633Z,298.125
2018-07-19T16:05:49.722Z,298.125
2018-07-19T16:07:05.765Z,298.125
2018-07-19T16:08:21.755Z,298.125
2018-07-19T16:09:37.757Z,292.5
2018-07-19T16:10:53.725Z,292.5
2018-07-19T16:12:09.756Z,292.5
2018-07-19T16:13:25.760Z,286.875
2018-07-19T16:14:41.759Z,286.875
2018-07-19T16:15:57.749Z,286.875
2018-07-19T16:17:13.751Z,281.25
2018-07-19T16:18:29.927Z,281.25
2018-07-19T16:19:45.969Z,281.25
2018-07-19T16:21:02.061Z,275.625
2018-07-19T16:22:18.080Z,275.625
2018-07-19T16:23:34.089Z,270
2018-07-19T16:24:51.147Z,270
2018-07-19T16:26:07.199Z,270
2018-07-19T16:27:23.937Z,264.375
2018-07-19T16:28:39.915Z,264.375
2018-07-19T16:29:55.866Z,258.75
2018-07-19T16:31:11.956Z,258.75
2018-07-19T16:32:28.887Z,258.75
2018-07-19T16:33:44.792Z,253.125
2018-07-19T16:35:00.722Z,253.125
2018-07-19T16:36:16.784Z,247.5
2018-07-19T16:37:32.858Z,247.5
2018-07-19T16:38:48.786Z,247.5
2018-07-19T16:40:04.703Z,241.875
2018-07-19T16:41:21.643Z,241.875
2018-07-19T16:42:37.679Z,241.875
2018-07-19T16:43:53.632Z,236.25
2018-07-19T16:45:09.586Z,230.625
2018-07-19T16:46:25.600Z,230.625
2018-07-19T16:47:41.473Z,225
2018-07-19T16:48:57.404Z,225
2018-07-19T16:50:13.347Z,225
2018-07-19T16:51:29.227Z,219.375
2018-07-19T16:52:45.186Z,219.375
2018-07-19T16:54:01.124Z,213.75
2018-07-19T16:55:17.051Z,213.75
2018-07-19T16:56:33.090Z,208.125
2018-07-19T16:57:49.065Z,208.125
2018-07-19T16:59:05.092Z,202.5
2018-07-19T17:00:21.214Z,196.875
2018-07-19T17:01:37.157Z,196.875
2018-07-19T17:02:53.066Z,191.25
2018-07-19T17:04:08.996Z,185.625
2018-07-19T17:05:24.957Z,180
2018-07-19T17:06:40.859Z,180